Impacts TAF Board INFO
FOR SITUATIONAL AWARENESS. NOT TO BE USED FOR FLIGHT PLANNING PURPOSES.
IDs:

KMSP - Minneapolis-St Paul, MN, US

Issued at 0829 UTC 20 Oct 2017
Updated at 0904 UTC 20 Oct 2017
Potential Impact None Slight Moderate High
Time<<20/22Z 20/23Z 21/00Z 21/01Z 21/02Z 21/03Z 21/04Z 21/05Z 21/06Z 21/07Z 21/08Z 21/09Z 21/10Z>>
Type PRVL PRVL PRVL PRVL PRVL PRVL PRVL PRVL PRVL PRVL PRVL PRVL PRVL
VIS >6 >6 >6 >6 >6 >6 >6 >6 >6 >6 >6 >6 >6
CIG -- -- -- -- -- -- -- -- 100 100 100 100 100
Cover FEW FEW FEW FEW SCT SCT SCT SCT BKN BKN BKN BKN BKN
FltCat VFR VFR VFR VFR VFR VFR VFR VFR VFR VFR VFR VFR VFR
WX -- -- -- -- -- -- -- -- -- -- -- -- --
WDir 170 170 170 170 170 170 170 170 170 170 170 170 170
WSpd 13 13 13 13 9 9 9 9 9 9 9 9 9
WGst 20 20 20 20 -- -- -- -- -- -- -- -- --

Raw TAF
KMSP 200829Z 2008/2112 15007KT P6SM SKC WS020/22040KT
  FM201500 18007KT P6SM SKC
  FM201800 17013G20KT P6SM FEW250
  FM210200 17009KT P6SM SCT150 WS020/19040KT
  FM210600 17009KT P6SM BKN100


METAR Board
Radar Display
Forecast Discussion

FOR SITUATIONAL AWARENESS. NOT TO BE USED FOR FLIGHT PLANNING PURPOSES.